sensor_id;sensor_type;location;lat;lon;timestamp;temperature;humidity
47757;SHT35;22147;52.388;13.390;2022-12-01T00:01:49;1.06;89.84
47757;SHT35;22147;52.388;13.390;2022-12-01T00:04:19;1.22;90.02
47757;SHT35;22147;52.388;13.390;2022-12-01T00:06:48;1.12;89.73
47757;SHT35;22147;52.388;13.390;2022-12-01T00:09:16;1.20;90.10
47757;SHT35;22147;52.388;13.390;2022-12-01T00:12:05;1.33;89.43
47757;SHT35;22147;52.388;13.390;2022-12-01T00:14:34;1.12;89.37
47757;SHT35;22147;52.388;13.390;2022-12-01T00:17:04;1.12;89.67
47757;SHT35;22147;52.388;13.390;2022-12-01T00:19:34;1.07;90.23
47757;SHT35;22147;52.388;13.390;2022-12-01T00:22:04;1.29;90.30
47757;SHT35;22147;52.388;13.390;2022-12-01T00:24:34;1.22;89.53
47757;SHT35;22147;52.388;13.390;2022-12-01T00:27:03;1.12;89.40
47757;SHT35;22147;52.388;13.390;2022-12-01T00:29:33;1.22;89.45
47757;SHT35;22147;52.388;13.390;2022-12-01T00:32:03;1.22;89.25
47757;SHT35;22147;52.388;13.390;2022-12-01T00:34:32;1.19;89.40
47757;SHT35;22147;52.388;13.390;2022-12-01T00:37:04;1.26;88.98
47757;SHT35;22147;52.388;13.390;2022-12-01T00:39:33;1.23;88.80
47757;SHT35;22147;52.388;13.390;2022-12-01T00:42:03;1.23;88.73
47757;SHT35;22147;52.388;13.390;2022-12-01T00:44:40;1.23;89.20
47757;SHT35;22147;52.388;13.390;2022-12-01T00:47:10;1.20;89.17
47757;SHT35;22147;52.388;13.390;2022-12-01T00:49:40;1.19;89.36
47757;SHT35;22147;52.388;13.390;2022-12-01T00:52:16;1.30;89.36
47757;SHT35;22147;52.388;13.390;2022-12-01T00:54:46;1.24;89.10
47757;SHT35;22147;52.388;13.390;2022-12-01T00:57:16;1.33;89.46
47757;SHT35;22147;52.388;13.390;2022-12-01T00:59:45;1.32;88.43
47757;SHT35;22147;52.388;13.390;2022-12-01T01:02:16;1.19;88.95
47757;SHT35;22147;52.388;13.390;2022-12-01T01:04:46;1.27;89.63
47757;SHT35;22147;52.388;13.390;2022-12-01T01:07:16;1.29;89.00
47757;SHT35;22147;52.388;13.390;2022-12-01T01:09:45;1.30;89.30
47757;SHT35;22147;52.388;13.390;2022-12-01T01:12:14;1.39;88.79
47757;SHT35;22147;52.388;13.390;2022-12-01T01:14:43;1.33;88.76
47757;SHT35;22147;52.388;13.390;2022-12-01T01:17:10;1.26;88.96
47757;SHT35;22147;52.388;13.390;2022-12-01T01:19:39;1.16;89.43
47757;SHT35;22147;52.388;13.390;2022-12-01T01:22:07;1.06;90.00
47757;SHT35;22147;52.388;13.390;2022-12-01T01:24:36;1.33;89.69
47757;SHT35;22147;52.388;13.390;2022-12-01T01:27:04;1.23;89.35
47757;SHT35;22147;52.388;13.390;2022-12-01T01:29:37;1.22;89.59
47757;SHT35;22147;52.388;13.390;2022-12-01T01:32:07;1.16;89.83
47757;SHT35;22147;52.388;13.390;2022-12-01T01:34:38;1.23;89.86
47757;SHT35;22147;52.388;13.390;2022-12-01T01:37:07;1.32;89.35
47757;SHT35;22147;52.388;13.390;2022-12-01T01:39:37;1.16;89.37
47757;SHT35;22147;52.388;13.390;2022-12-01T01:42:17;1.16;89.96
47757;SHT35;22147;52.388;13.390;2022-12-01T01:44:54;1.05;89.97
47757;SHT35;22147;52.388;13.390;2022-12-01T01:47:35;1.02;90.24
47757;SHT35;22147;52.388;13.390;2022-12-01T01:50:15;1.00;90.40
47757;SHT35;22147;52.388;13.390;2022-12-01T01:53:05;1.02;90.53
47757;SHT35;22147;52.388;13.390;2022-12-01T01:55:37;0.91;90.61
47757;SHT35;22147;52.388;13.390;2022-12-01T01:58:10;1.09;90.80
47757;SHT35;22147;52.388;13.390;2022-12-01T02:00:46;1.00;90.22
47757;SHT35;22147;52.388;13.390;2022-12-01T02:03:19;0.97;90.37
47757;SHT35;22147;52.388;13.390;2022-12-01T02:05:48;1.06;90.61
47757;SHT35;22147;52.388;13.390;2022-12-01T02:08:16;1.03;90.19
47757;SHT35;22147;52.388;13.390;2022-12-01T02:20:33;1.13;89.84
47757;SHT35;22147;52.388;13.390;2022-12-01T02:30:04;1.05;90.21
47757;SHT35;22147;52.388;13.390;2022-12-01T02:33:23;0.92;89.94
47757;SHT35;22147;52.388;13.390;2022-12-01T02:41:49;0.96;89.51
47757;SHT35;22147;52.388;13.390;2022-12-01T02:44:39;0.91;89.66
47757;SHT35;22147;52.388;13.390;2022-12-01T02:47:15;0.92;90.03
47757;SHT35;22147;52.388;13.390;2022-12-01T02:49:56;0.97;89.87
47757;SHT35;22147;52.388;13.390;2022-12-01T02:52:28;1.03;89.72
47757;SHT35;22147;52.388;13.390;2022-12-01T02:54:58;0.93;89.42
47757;SHT35;22147;52.388;13.390;2022-12-01T02:57:30;0.89;89.62
47757;SHT35;22147;52.388;13.390;2022-12-01T03:00:01;0.81;89.99
47757;SHT35;22147;52.388;13.390;2022-12-01T03:13:08;1.02;90.22
47757;SHT35;22147;52.388;13.390;2022-12-01T03:16:12;1.02;89.64
47757;SHT35;22147;52.388;13.390;2022-12-01T03:22:29;0.78;90.33
47757;SHT35;22147;52.388;13.390;2022-12-01T03:25:04;0.84;90.61
47757;SHT35;22147;52.388;13.390;2022-12-01T03:27:43;0.89;90.20
47757;SHT35;22147;52.388;13.390;2022-12-01T03:30:37;0.93;89.50
47757;SHT35;22147;52.388;13.390;2022-12-01T03:33:38;0.84;89.65
47757;SHT35;22147;52.388;13.390;2022-12-01T03:36:48;0.84;89.52
47757;SHT35;22147;52.388;13.390;2022-12-01T03:39:30;0.79;89.89
47757;SHT35;22147;52.388;13.390;2022-12-01T03:42:34;0.96;89.65
47757;SHT35;22147;52.388;13.390;2022-12-01T03:45:22;0.85;89.16
47757;SHT35;22147;52.388;13.390;2022-12-01T03:47:53;0.82;89.38
47757;SHT35;22147;52.388;13.390;2022-12-01T03:50:58;0.66;89.77
47757;SHT35;22147;52.388;13.390;2022-12-01T03:54:10;0.74;90.10
47757;SHT35;22147;52.388;13.390;2022-12-01T03:56:55;0.65;90.22
47757;SHT35;22147;52.388;13.390;2022-12-01T03:59:27;0.72;90.52
47757;SHT35;22147;52.388;13.390;2022-12-01T04:01:57;0.65;90.75
47757;SHT35;22147;52.388;13.390;2022-12-01T04:04:26;0.61;90.60
47757;SHT35;22147;52.388;13.390;2022-12-01T04:06:56;0.69;90.55
47757;SHT35;22147;52.388;13.390;2022-12-01T04:09:26;0.68;90.09
47757;SHT35;22147;52.388;13.390;2022-12-01T04:11:57;0.68;90.24
47757;SHT35;22147;52.388;13.390;2022-12-01T04:14:46;0.66;90.07
47757;SHT35;22147;52.388;13.390;2022-12-01T04:17:16;0.82;90.37
47757;SHT35;22147;52.388;13.390;2022-12-01T04:19:46;0.72;89.91
47757;SHT35;22147;52.388;13.390;2022-12-01T04:22:16;0.66;90.04
47757;SHT35;22147;52.388;13.390;2022-12-01T04:24:46;0.76;90.22
47757;SHT35;22147;52.388;13.390;2022-12-01T04:27:16;0.62;90.15
47757;SHT35;22147;52.388;13.390;2022-12-01T04:29:47;0.61;90.53
47757;SHT35;22147;52.388;13.390;2022-12-01T04:32:17;0.61;90.20
47757;SHT35;22147;52.388;13.390;2022-12-01T04:34:47;0.54;90.35
47757;SHT35;22147;52.388;13.390;2022-12-01T04:37:18;0.65;90.43
47757;SHT35;22147;52.388;13.390;2022-12-01T04:39:48;0.81;89.79
47757;SHT35;22147;52.388;13.390;2022-12-01T04:42:19;0.68;89.33
47757;SHT35;22147;52.388;13.390;2022-12-01T04:44:47;0.65;89.48
47757;SHT35;22147;52.388;13.390;2022-12-01T04:47:16;0.71;89.44
47757;SHT35;22147;52.388;13.390;2022-12-01T04:49:44;0.54;89.61
47757;SHT35;22147;52.388;13.390;2022-12-01T04:52:12;0.74;90.02
47757;SHT35;22147;52.388;13.390;2022-12-01T04:54:41;0.84;89.26
47757;SHT35;22147;52.388;13.390;2022-12-01T04:57:09;0.84;88.48
47757;SHT35;22147;52.388;13.390;2022-12-01T04:59:38;0.82;88.85
47757;SHT35;22147;52.388;13.390;2022-12-01T05:02:06;0.69;89.42
47757;SHT35;22147;52.388;13.390;2022-12-01T05:04:34;0.78;88.96
47757;SHT35;22147;52.388;13.390;2022-12-01T05:07:06;0.55;89.42
47757;SHT35;22147;52.388;13.390;2022-12-01T05:09:34;0.54;89.96
47757;SHT35;22147;52.388;13.390;2022-12-01T05:12:03;0.72;90.39
47757;SHT35;22147;52.388;13.390;2022-12-01T05:14:31;0.45;90.06
47757;SHT35;22147;52.388;13.390;2022-12-01T05:17:00;0.55;90.63
47757;SHT35;22147;52.388;13.390;2022-12-01T05:19:28;0.57;90.69
47757;SHT35;22147;52.388;13.390;2022-12-01T05:22:17;0.50;90.60
47757;SHT35;22147;52.388;13.390;2022-12-01T05:25:06;0.47;90.69
47757;SHT35;22147;52.388;13.390;2022-12-01T05:27:35;0.54;90.50
47757;SHT35;22147;52.388;13.390;2022-12-01T05:30:04;0.55;90.59
47757;SHT35;22147;52.388;13.390;2022-12-01T05:32:34;0.58;90.51
47757;SHT35;22147;52.388;13.390;2022-12-01T05:35:03;0.82;89.54
47757;SHT35;22147;52.388;13.390;2022-12-01T05:37:31;0.68;89.41
47757;SHT35;22147;52.388;13.390;2022-12-01T05:40:04;0.71;89.97
47757;SHT35;22147;52.388;13.390;2022-12-01T05:42:34;0.88;89.37
47757;SHT35;22147;52.388;13.390;2022-12-01T05:45:05;0.86;89.03
47757;SHT35;22147;52.388;13.390;2022-12-01T05:47:36;0.78;89.21
47757;SHT35;22147;52.388;13.390;2022-12-01T05:50:07;0.64;89.50
47757;SHT35;22147;52.388;13.390;2022-12-01T05:52:37;0.79;89.48
47757;SHT35;22147;52.388;13.390;2022-12-01T05:55:08;0.92;89.35
47757;SHT35;22147;52.388;13.390;2022-12-01T05:57:38;0.76;88.77
47757;SHT35;22147;52.388;13.390;2022-12-01T06:00:10;0.78;89.27
47757;SHT35;22147;52.388;13.390;2022-12-01T06:02:41;0.66;88.77
47757;SHT35;22147;52.388;13.390;2022-12-01T06:05:11;0.71;88.98
47757;SHT35;22147;52.388;13.390;2022-12-01T06:07:42;0.72;88.86
47757;SHT35;22147;52.388;13.390;2022-12-01T06:10:12;0.58;89.08
47757;SHT35;22147;52.388;13.390;2022-12-01T06:12:43;0.76;88.97
47757;SHT35;22147;52.388;13.390;2022-12-01T06:15:13;0.61;88.70
47757;SHT35;22147;52.388;13.390;2022-12-01T06:17:43;0.64;89.48
47757;SHT35;22147;52.388;13.390;2022-12-01T06:20:13;0.53;89.38
47757;SHT35;22147;52.388;13.390;2022-12-01T06:22:43;0.68;89.36
47757;SHT35;22147;52.388;13.390;2022-12-01T06:25:12;0.71;88.74
47757;SHT35;22147;52.388;13.390;2022-12-01T06:27:40;0.66;89.13
47757;SHT35;22147;52.388;13.390;2022-12-01T06:30:09;0.76;88.67
47757;SHT35;22147;52.388;13.390;2022-12-01T06:32:37;0.71;88.90
47757;SHT35;22147;52.388;13.390;2022-12-01T06:35:06;0.82;88.16
47757;SHT35;22147;52.388;13.390;2022-12-01T06:37:34;0.69;88.49
47757;SHT35;22147;52.388;13.390;2022-12-01T06:40:03;0.74;88.54
47757;SHT35;22147;52.388;13.390;2022-12-01T06:42:30;0.72;88.66
47757;SHT35;22147;52.388;13.390;2022-12-01T06:44:59;0.62;88.85
47757;SHT35;22147;52.388;13.390;2022-12-01T06:47:27;0.71;89.04
47757;SHT35;22147;52.388;13.390;2022-12-01T06:49:56;0.69;89.01
47757;SHT35;22147;52.388;13.390;2022-12-01T06:52:24;0.62;89.04
47757;SHT35;22147;52.388;13.390;2022-12-01T06:54:52;0.53;89.48
47757;SHT35;22147;52.388;13.390;2022-12-01T06:57:21;0.54;89.80
47757;SHT35;22147;52.388;13.390;2022-12-01T06:59:49;0.60;90.20
47757;SHT35;22147;52.388;13.390;2022-12-01T07:02:18;0.79;89.63
47757;SHT35;22147;52.388;13.390;2022-12-01T07:04:46;0.81;88.70
47757;SHT35;22147;52.388;13.390;2022-12-01T07:07:15;0.79;88.50
47757;SHT35;22147;52.388;13.390;2022-12-01T07:09:43;0.82;88.88
47757;SHT35;22147;52.388;13.390;2022-12-01T07:12:14;0.68;88.77
47757;SHT35;22147;52.388;13.390;2022-12-01T07:14:47;0.72;89.23
47757;SHT35;22147;52.388;13.390;2022-12-01T07:17:17;0.92;88.57
47757;SHT35;22147;52.388;13.390;2022-12-01T07:19:47;0.88;88.31
47757;SHT35;22147;52.388;13.390;2022-12-01T07:22:18;0.78;88.10
47757;SHT35;22147;52.388;13.390;2022-12-01T07:24:48;0.65;88.54
47757;SHT35;22147;52.388;13.390;2022-12-01T07:27:18;0.66;89.02
47757;SHT35;22147;52.388;13.390;2022-12-01T07:29:48;0.79;89.14
47757;SHT35;22147;52.388;13.390;2022-12-01T07:32:19;0.78;88.47
47757;SHT35;22147;52.388;13.390;2022-12-01T07:34:49;0.79;88.61
47757;SHT35;22147;52.388;13.390;2022-12-01T07:37:19;0.93;88.17
47757;SHT35;22147;52.388;13.390;2022-12-01T07:39:49;0.84;87.41
47757;SHT35;22147;52.388;13.390;2022-12-01T07:42:19;0.75;87.97
47757;SHT35;22147;52.388;13.390;2022-12-01T07:44:50;0.84;88.59
47757;SHT35;22147;52.388;13.390;2022-12-01T07:47:20;0.91;87.83
47757;SHT35;22147;52.388;13.390;2022-12-01T07:49:50;0.97;87.79
47757;SHT35;22147;52.388;13.390;2022-12-01T07:52:20;0.88;87.50
47757;SHT35;22147;52.388;13.390;2022-12-01T07:54:50;0.78;87.64
47757;SHT35;22147;52.388;13.390;2022-12-01T07:57:21;0.72;88.34
47757;SHT35;22147;52.388;13.390;2022-12-01T07:59:52;0.81;88.06
47757;SHT35;22147;52.388;13.390;2022-12-01T08:02:22;0.91;88.16
47757;SHT35;22147;52.388;13.390;2022-12-01T08:04:52;0.96;87.08
47757;SHT35;22147;52.388;13.390;2022-12-01T08:07:22;0.92;87.43
47757;SHT35;22147;52.388;13.390;2022-12-01T08:09:58;0.84;87.43
47757;SHT35;22147;52.388;13.390;2022-12-01T08:12:28;0.93;87.37
47757;SHT35;22147;52.388;13.390;2022-12-01T08:14:58;0.79;87.41
47757;SHT35;22147;52.388;13.390;2022-12-01T08:17:28;0.76;87.47
47757;SHT35;22147;52.388;13.390;2022-12-01T08:19:58;0.76;87.84
47757;SHT35;22147;52.388;13.390;2022-12-01T08:22:26;0.84;87.78
47757;SHT35;22147;52.388;13.390;2022-12-01T08:24:55;0.92;87.55
47757;SHT35;22147;52.388;13.390;2022-12-01T08:27:23;0.85;87.45
47757;SHT35;22147;52.388;13.390;2022-12-01T08:29:52;0.89;87.80
47757;SHT35;22147;52.388;13.390;2022-12-01T08:32:20;1.12;87.03
47757;SHT35;22147;52.388;13.390;2022-12-01T08:34:49;1.02;86.45
47757;SHT35;22147;52.388;13.390;2022-12-01T08:37:20;1.19;86.08
47757;SHT35;22147;52.388;13.390;2022-12-01T08:39:49;1.03;86.68
47757;SHT35;22147;52.388;13.390;2022-12-01T08:42:18;1.12;86.32
47757;SHT35;22147;52.388;13.390;2022-12-01T08:44:46;1.07;86.31
47757;SHT35;22147;52.388;13.390;2022-12-01T08:47:14;1.03;86.86
47757;SHT35;22147;52.388;13.390;2022-12-01T08:49:47;1.13;87.04
47757;SHT35;22147;52.388;13.390;2022-12-01T08:52:18;1.30;85.65
47757;SHT35;22147;52.388;13.390;2022-12-01T08:54:49;1.22;85.83
47757;SHT35;22147;52.388;13.390;2022-12-01T08:57:19;1.11;86.14
47757;SHT35;22147;52.388;13.390;2022-12-01T08:59:49;0.99;86.50
47757;SHT35;22147;52.388;13.390;2022-12-01T09:02:19;1.11;86.15
47757;SHT35;22147;52.388;13.390;2022-12-01T09:04:52;1.17;86.40
47757;SHT35;22147;52.388;13.390;2022-12-01T09:07:22;1.32;85.75
47757;SHT35;22147;52.388;13.390;2022-12-01T09:09:54;1.40;84.89
47757;SHT35;22147;52.388;13.390;2022-12-01T09:12:22;1.20;85.30
47757;SHT35;22147;52.388;13.390;2022-12-01T09:14:50;1.13;86.11
47757;SHT35;22147;52.388;13.390;2022-12-01T09:17:19;1.09;86.29
47757;SHT35;22147;52.388;13.390;2022-12-01T09:19:47;1.15;86.47
47757;SHT35;22147;52.388;13.390;2022-12-01T09:22:16;1.12;86.58
47757;SHT35;22147;52.388;13.390;2022-12-01T09:24:44;1.06;87.11
47757;SHT35;22147;52.388;13.390;2022-12-01T09:27:12;1.13;87.40
47757;SHT35;22147;52.388;13.390;2022-12-01T09:29:41;1.33;86.48
47757;SHT35;22147;52.388;13.390;2022-12-01T09:32:09;1.27;85.90
47757;SHT35;22147;52.388;13.390;2022-12-01T09:34:38;1.50;84.68
47757;SHT35;22147;52.388;13.390;2022-12-01T09:37:08;1.47;84.28
47757;SHT35;22147;52.388;13.390;2022-12-01T09:39:38;1.27;85.45
47757;SHT35;22147;52.388;13.390;2022-12-01T09:42:16;1.22;86.37
47757;SHT35;22147;52.388;13.390;2022-12-01T09:44:56;1.29;86.19
47757;SHT35;22147;52.388;13.390;2022-12-01T09:47:35;1.33;85.91
47757;SHT35;22147;52.388;13.390;2022-12-01T09:50:18;1.39;85.27
47757;SHT35;22147;52.388;13.390;2022-12-01T09:53:17;1.20;85.71
47757;SHT35;22147;52.388;13.390;2022-12-01T09:55:50;1.17;86.33
47757;SHT35;22147;52.388;13.390;2022-12-01T09:58:27;1.36;86.29
47757;SHT35;22147;52.388;13.390;2022-12-01T10:00:59;1.34;85.27
47757;SHT35;22147;52.388;13.390;2022-12-01T10:03:43;1.29;85.98
47757;SHT35;22147;52.388;13.390;2022-12-01T10:06:30;1.46;84.98
47757;SHT35;22147;52.388;13.390;2022-12-01T10:09:42;1.57;85.05
47757;SHT35;22147;52.388;13.390;2022-12-01T10:12:20;1.60;84.35
47757;SHT35;22147;52.388;13.390;2022-12-01T10:15:21;1.53;84.50
47757;SHT35;22147;52.388;13.390;2022-12-01T10:25:18;1.40;84.80
47757;SHT35;22147;52.388;13.390;2022-12-01T10:31:43;1.24;86.14
47757;SHT35;22147;52.388;13.390;2022-12-01T10:34:27;1.40;85.20
47757;SHT35;22147;52.388;13.390;2022-12-01T10:36:58;1.37;85.47
47757;SHT35;22147;52.388;13.390;2022-12-01T10:39:40;1.30;85.49
47757;SHT35;22147;52.388;13.390;2022-12-01T10:44:54;1.54;84.64
47757;SHT35;22147;52.388;13.390;2022-12-01T10:47:24;1.53;84.37
47757;SHT35;22147;52.388;13.390;2022-12-01T10:49:55;1.37;85.05
47757;SHT35;22147;52.388;13.390;2022-12-01T10:52:40;1.44;85.53
47757;SHT35;22147;52.388;13.390;2022-12-01T10:55:27;1.54;84.19
47757;SHT35;22147;52.388;13.390;2022-12-01T10:58:11;1.39;84.99
47757;SHT35;22147;52.388;13.390;2022-12-01T11:00:43;1.61;84.40
47757;SHT35;22147;52.388;13.390;2022-12-01T11:03:34;1.58;84.35
47757;SHT35;22147;52.388;13.390;2022-12-01T11:06:07;1.42;84.77
47757;SHT35;22147;52.388;13.390;2022-12-01T11:09:19;1.43;84.90
47757;SHT35;22147;52.388;13.390;2022-12-01T11:12:00;1.70;84.53
47757;SHT35;22147;52.388;13.390;2022-12-01T11:14:43;1.63;83.61
47757;SHT35;22147;52.388;13.390;2022-12-01T11:17:41;1.43;84.26
47757;SHT35;22147;52.388;13.390;2022-12-01T11:20:39;1.40;84.78
47757;SHT35;22147;52.388;13.390;2022-12-01T11:23:25;1.27;85.13
47757;SHT35;22147;52.388;13.390;2022-12-01T11:26:18;1.37;85.08
47757;SHT35;22147;52.388;13.390;2022-12-01T11:29:03;1.29;85.56
47757;SHT35;22147;52.388;13.390;2022-12-01T11:31:48;1.43;84.49
47757;SHT35;22147;52.388;13.390;2022-12-01T11:34:32;1.33;85.39
47757;SHT35;22147;52.388;13.390;2022-12-01T11:37:17;1.55;84.17
47757;SHT35;22147;52.388;13.390;2022-12-01T11:39:50;1.64;83.34
47757;SHT35;22147;52.388;13.390;2022-12-01T11:42:30;1.67;83.49
47757;SHT35;22147;52.388;13.390;2022-12-01T11:51:00;1.57;83.87
47757;SHT35;22147;52.388;13.390;2022-12-01T11:56:27;1.36;85.44
47757;SHT35;22147;52.388;13.390;2022-12-01T11:59:15;1.61;84.52
47757;SHT35;22147;52.388;13.390;2022-12-01T12:02:33;1.78;82.64
47757;SHT35;22147;52.388;13.390;2022-12-01T12:06:11;1.44;84.30
47757;SHT35;22147;52.388;13.390;2022-12-01T12:15:32;1.68;83.73
47757;SHT35;22147;52.388;13.390;2022-12-01T12:34:17;1.71;82.84
47757;SHT35;22147;52.388;13.390;2022-12-01T12:41:07;1.64;83.76
47757;SHT35;22147;52.388;13.390;2022-12-01T12:47:19;1.65;83.44
47757;SHT35;22147;52.388;13.390;2022-12-01T12:50:24;1.61;84.25
47757;SHT35;22147;52.388;13.390;2022-12-01T12:53:14;1.61;84.32
47757;SHT35;22147;52.388;13.390;2022-12-01T12:55:57;1.77;82.84
47757;SHT35;22147;52.388;13.390;2022-12-01T12:58:56;1.74;83.11
47757;SHT35;22147;52.388;13.390;2022-12-01T13:01:43;1.82;82.68
47757;SHT35;22147;52.388;13.390;2022-12-01T13:04:40;1.68;83.26
47757;SHT35;22147;52.388;13.390;2022-12-01T13:07:41;1.55;83.46
47757;SHT35;22147;52.388;13.390;2022-12-01T13:13:36;1.50;84.17
47757;SHT35;22147;52.388;13.390;2022-12-01T13:16:29;1.39;84.93
47757;SHT35;22147;52.388;13.390;2022-12-01T13:19:17;1.58;84.42
47757;SHT35;22147;52.388;13.390;2022-12-01T13:21:52;1.63;83.54
47757;SHT35;22147;52.388;13.390;2022-12-01T13:24:29;1.79;82.09
47757;SHT35;22147;52.388;13.390;2022-12-01T13:27:15;1.57;83.00
47757;SHT35;22147;52.388;13.390;2022-12-01T13:29:51;1.30;84.36
47757;SHT35;22147;52.388;13.390;2022-12-01T13:32:36;1.39;84.75
47757;SHT35;22147;52.388;13.390;2022-12-01T13:35:30;1.42;84.37
47757;SHT35;22147;52.388;13.390;2022-12-01T13:38:33;1.51;84.37
47757;SHT35;22147;52.388;13.390;2022-12-01T13:44:35;1.58;83.33
47757;SHT35;22147;52.388;13.390;2022-12-01T13:47:28;1.55;83.59
47757;SHT35;22147;52.388;13.390;2022-12-01T13:49:54;1.60;83.15
47757;SHT35;22147;52.388;13.390;2022-12-01T13:52:27;1.58;82.78
47757;SHT35;22147;52.388;13.390;2022-12-01T14:00:43;1.58;83.00
47757;SHT35;22147;52.388;13.390;2022-12-01T14:06:39;1.61;82.89
47757;SHT35;22147;52.388;13.390;2022-12-01T14:12:26;1.61;82.94
47757;SHT35;22147;52.388;13.390;2022-12-01T14:15:30;1.63;82.73
47757;SHT35;22147;52.388;13.390;2022-12-01T14:21:08;1.54;83.59
47757;SHT35;22147;52.388;13.390;2022-12-01T14:24:02;1.60;82.73
47757;SHT35;22147;52.388;13.390;2022-12-01T14:26:44;1.60;83.23
47757;SHT35;22147;52.388;13.390;2022-12-01T14:29:35;1.67;83.15
47757;SHT35;22147;52.388;13.390;2022-12-01T14:34:39;1.57;82.89
47757;SHT35;22147;52.388;13.390;2022-12-01T14:37:41;1.54;83.40
47757;SHT35;22147;52.388;13.390;2022-12-01T14:40:21;1.47;83.90
47757;SHT35;22147;52.388;13.390;2022-12-01T14:42:56;1.54;83.72
47757;SHT35;22147;52.388;13.390;2022-12-01T14:46:03;1.64;83.43
47757;SHT35;22147;52.388;13.390;2022-12-01T14:48:44;1.51;83.47
47757;SHT35;22147;52.388;13.390;2022-12-01T14:51:26;1.48;83.80
47757;SHT35;22147;52.388;13.390;2022-12-01T14:54:05;1.46;83.63
47757;SHT35;22147;52.388;13.390;2022-12-01T14:56:40;1.44;83.92
47757;SHT35;22147;52.388;13.390;2022-12-01T14:59:25;1.44;83.73
47757;SHT35;22147;52.388;13.390;2022-12-01T15:02:08;1.55;83.51
47757;SHT35;22147;52.388;13.390;2022-12-01T15:05:16;1.64;82.85
47757;SHT35;22147;52.388;13.390;2022-12-01T15:07:52;1.51;83.46
47757;SHT35;22147;52.388;13.390;2022-12-01T15:10:35;1.39;83.67
47757;SHT35;22147;52.388;13.390;2022-12-01T15:13:48;1.27;84.29
47757;SHT35;22147;52.388;13.390;2022-12-01T15:16:21;1.48;83.67
47757;SHT35;22147;52.388;13.390;2022-12-01T15:18:52;1.42;83.86
47757;SHT35;22147;52.388;13.390;2022-12-01T15:21:31;1.42;84.32
47757;SHT35;22147;52.388;13.390;2022-12-01T15:24:25;1.37;84.24
47757;SHT35;22147;52.388;13.390;2022-12-01T15:26:58;1.53;84.22
47757;SHT35;22147;52.388;13.390;2022-12-01T15:29:42;1.51;83.90
47757;SHT35;22147;52.388;13.390;2022-12-01T15:32:20;1.42;84.47
47757;SHT35;22147;52.388;13.390;2022-12-01T15:34:55;1.30;85.01
47757;SHT35;22147;52.388;13.390;2022-12-01T15:37:30;1.29;85.54
47757;SHT35;22147;52.388;13.390;2022-12-01T15:40:07;1.30;85.64
47757;SHT35;22147;52.388;13.390;2022-12-01T15:43:14;1.40;85.29
47757;SHT35;22147;52.388;13.390;2022-12-01T15:45:57;1.32;85.81
47757;SHT35;22147;52.388;13.390;2022-12-01T15:48:36;1.37;86.14
47757;SHT35;22147;52.388;13.390;2022-12-01T15:51:23;1.47;85.28
47757;SHT35;22147;52.388;13.390;2022-12-01T15:54:00;1.34;85.62
47757;SHT35;22147;52.388;13.390;2022-12-01T15:56:39;1.32;86.01
47757;SHT35;22147;52.388;13.390;2022-12-01T15:59:36;1.32;86.72
47757;SHT35;22147;52.388;13.390;2022-12-01T16:02:31;1.33;86.41
47757;SHT35;22147;52.388;13.390;2022-12-01T16:05:32;1.20;87.33
47757;SHT35;22147;52.388;13.390;2022-12-01T16:08:22;1.15;88.14
47757;SHT35;22147;52.388;13.390;2022-12-01T16:11:14;1.12;88.15
47757;SHT35;22147;52.388;13.390;2022-12-01T16:14:02;1.29;87.62
47757;SHT35;22147;52.388;13.390;2022-12-01T16:16:41;1.19;87.57
47757;SHT35;22147;52.388;13.390;2022-12-01T16:22:17;1.09;88.36
47757;SHT35;22147;52.388;13.390;2022-12-01T16:24:52;1.19;89.10
47757;SHT35;22147;52.388;13.390;2022-12-01T16:27:30;1.11;88.85
47757;SHT35;22147;52.388;13.390;2022-12-01T16:30:24;0.99;89.31
47757;SHT35;22147;52.388;13.390;2022-12-01T16:35:44;1.06;89.43
47757;SHT35;22147;52.388;13.390;2022-12-01T16:38:25;1.03;89.63
47757;SHT35;22147;52.388;13.390;2022-12-01T16:41:01;1.00;89.89
47757;SHT35;22147;52.388;13.390;2022-12-01T16:43:46;0.89;90.25
47757;SHT35;22147;52.388;13.390;2022-12-01T16:46:36;0.84;90.68
47757;SHT35;22147;52.388;13.390;2022-12-01T16:49:07;0.86;90.73
47757;SHT35;22147;52.388;13.390;2022-12-01T16:51:36;0.78;91.09
47757;SHT35;22147;52.388;13.390;2022-12-01T16:54:25;0.79;91.42
47757;SHT35;22147;52.388;13.390;2022-12-01T16:56:52;0.79;91.43
47757;SHT35;22147;52.388;13.390;2022-12-01T16:59:20;0.75;91.58
47757;SHT35;22147;52.388;13.390;2022-12-01T17:01:49;0.72;91.78
47757;SHT35;22147;52.388;13.390;2022-12-01T17:04:17;0.76;91.88
47757;SHT35;22147;52.388;13.390;2022-12-01T17:06:47;0.74;91.96
47757;SHT35;22147;52.388;13.390;2022-12-01T17:09:19;0.84;92.26
47757;SHT35;22147;52.388;13.390;2022-12-01T17:11:49;0.79;92.17
47757;SHT35;22147;52.388;13.390;2022-12-01T17:14:19;0.78;92.16
47757;SHT35;22147;52.388;13.390;2022-12-01T17:16:49;0.79;92.18
47757;SHT35;22147;52.388;13.390;2022-12-01T17:19:19;0.69;92.31
47757;SHT35;22147;52.388;13.390;2022-12-01T17:21:50;0.75;92.52
47757;SHT35;22147;52.388;13.390;2022-12-01T17:24:20;0.76;92.50
47757;SHT35;22147;52.388;13.390;2022-12-01T17:26:50;0.76;92.57
47757;SHT35;22147;52.388;13.390;2022-12-01T17:29:20;0.79;92.59
47757;SHT35;22147;52.388;13.390;2022-12-01T17:31:50;0.75;92.56
47757;SHT35;22147;52.388;13.390;2022-12-01T17:34:20;0.74;92.61
47757;SHT35;22147;52.388;13.390;2022-12-01T17:36:50;0.78;92.70
47757;SHT35;22147;52.388;13.390;2022-12-01T17:39:18;0.81;92.78
47757;SHT35;22147;52.388;13.390;2022-12-01T17:41:47;0.78;92.74
47757;SHT35;22147;52.388;13.390;2022-12-01T17:44:15;0.82;92.59
47757;SHT35;22147;52.388;13.390;2022-12-01T17:46:44;0.95;92.26
47757;SHT35;22147;52.388;13.390;2022-12-01T17:49:13;0.81;91.98
47757;SHT35;22147;52.388;13.390;2022-12-01T17:51:41;0.88;91.95
47757;SHT35;22147;52.388;13.390;2022-12-01T17:54:09;0.81;91.93
47757;SHT35;22147;52.388;13.390;2022-12-01T17:56:38;0.78;92.07
47757;SHT35;22147;52.388;13.390;2022-12-01T17:59:06;0.75;92.17
47757;SHT35;22147;52.388;13.390;2022-12-01T18:01:35;0.74;92.42
47757;SHT35;22147;52.388;13.390;2022-12-01T18:04:03;0.75;92.48
47757;SHT35;22147;52.388;13.390;2022-12-01T18:06:34;0.76;92.50
47757;SHT35;22147;52.388;13.390;2022-12-01T18:09:05;0.72;92.53
47757;SHT35;22147;52.388;13.390;2022-12-01T18:11:35;0.75;92.57
47757;SHT35;22147;52.388;13.390;2022-12-01T18:14:05;0.79;92.60
47757;SHT35;22147;52.388;13.390;2022-12-01T18:16:35;0.75;92.66
47757;SHT35;22147;52.388;13.390;2022-12-01T18:19:04;0.89;92.77
47757;SHT35;22147;52.388;13.390;2022-12-01T18:21:34;0.82;92.58
47757;SHT35;22147;52.388;13.390;2022-12-01T18:24:05;0.76;92.64
47757;SHT35;22147;52.388;13.390;2022-12-01T18:26:39;0.82;92.72